Time;durP1;ratioP1;P1;durP2;ratioP2;P2;SDS_P1;SDS_P2;PMS_P1;PMS_P2;Temp;Humidity;BMP_temperature;BMP_pressure;BME280_temperature;BME280_humidity;BME280_pressure;Samples;Min_cycle;Max_cycle;Signal;HPM_P1;HPM_P2
2022/10/26 00:02:15;;;;;;;8.70;5.30;;;15.50;99.90;;;;;;4994214;28;20175;-70
2022/10/26 00:04:41;;;;;;;4.20;2.30;;;15.50;99.90;;;;;;4994290;28;20181;-69
2022/10/26 00:07:07;;;;;;;12.33;6.23;;;15.50;99.90;;;;;;4994303;28;20171;-69
2022/10/26 00:09:32;;;;;;;4.43;3.70;;;15.50;99.90;;;;;;4993808;28;20198;-69
2022/10/26 00:11:58;;;;;;;5.43;2.70;;;15.50;99.90;;;;;;4993990;28;20190;-69
2022/10/26 00:14:25;;;;;;;6.43;3.30;;;15.50;99.90;;;;;;4994257;28;20180;-69
2022/10/26 00:16:50;;;;;;;7.50;2.53;;;15.50;99.90;;;;;;4994265;28;20179;-69
2022/10/26 00:19:16;;;;;;;7.47;2.83;;;15.50;99.90;;;;;;4994096;28;20265;-69
2022/10/26 00:21:41;;;;;;;6.90;2.73;;;15.50;99.90;;;;;;4993911;28;20266;-69
2022/10/26 00:24:07;;;;;;;16.27;8.57;;;15.40;99.90;;;;;;4993678;28;20195;-69
2022/10/26 00:26:33;;;;;;;7.77;4.80;;;15.40;99.90;;;;;;4993899;28;20175;-69
2022/10/26 00:28:58;;;;;;;6.77;3.40;;;15.40;99.90;;;;;;4993703;28;20171;-69
2022/10/26 00:31:24;;;;;;;5.43;3.30;;;15.40;99.90;;;;;;4993898;28;20642;-69
2022/10/26 00:33:53;;;;;;;7.57;4.03;;;15.50;99.90;;;;;;4993874;28;20174;-70
2022/10/26 00:36:19;;;;;;;4.57;2.30;;;15.50;99.90;;;;;;4993925;28;20697;-68
2022/10/26 00:38:50;;;;;;;9.93;2.87;;;15.50;99.90;;;;;;4993512;28;20172;-69
2022/10/26 00:41:21;;;;;;;3.87;2.33;;;15.50;99.90;;;;;;4993490;28;20659;-70
2022/10/26 00:43:48;;;;;;;9.17;3.60;;;15.40;99.90;;;;;;4993734;28;20270;-70
2022/10/26 00:46:35;;;;;;;4.17;2.10;;;15.50;99.90;;;;;;4993785;28;20178;-69
2022/10/26 00:49:10;;;;;;;3.77;2.07;;;15.40;99.90;;;;;;4993872;28;20526;-70
2022/10/26 00:51:41;;;;;;;4.53;2.20;;;15.50;99.90;;;;;;4993378;28;20253;-69
2022/10/26 00:54:11;;;;;;;5.60;2.20;;;15.50;99.90;;;;;;4993687;28;20175;-69
2022/10/26 00:56:37;;;;;;;5.97;2.17;;;15.60;99.90;;;;;;4993893;28;20172;-69
2022/10/26 00:59:05;;;;;;;5.20;2.53;;;15.60;99.90;;;;;;4993613;28;20262;-69
2022/10/26 01:01:35;;;;;;;4.40;2.10;;;15.60;99.90;;;;;;4993698;28;20190;-69
2022/10/26 01:04:00;;;;;;;5.27;2.30;;;15.60;99.90;;;;;;4993596;28;20180;-68
2022/10/26 01:06:30;;;;;;;4.10;2.23;;;15.70;99.90;;;;;;4993215;28;20217;-69
2022/10/26 01:08:56;;;;;;;4.10;1.93;;;15.70;99.90;;;;;;4993599;28;20206;-69
2022/10/26 01:11:22;;;;;;;4.37;1.97;;;15.70;99.90;;;;;;4993382;28;20667;-69
2022/10/26 01:13:50;;;;;;;4.07;2.10;;;15.70;99.90;;;;;;4993525;28;20187;-70
2022/10/26 01:16:37;;;;;;;4.07;2.23;;;15.60;99.90;;;;;;4993526;28;20254;-70
2022/10/26 01:19:27;;;;;;;2.57;1.80;;;15.60;99.90;;;;;;4993584;28;20183;-68
2022/10/26 01:22:01;;;;;;;3.73;2.00;;;15.60;99.90;;;;;;4993112;28;20233;-69
2022/10/26 01:24:51;;;;;;;8.03;2.23;;;15.60;99.90;;;;;;4993466;28;20171;-69
2022/10/26 01:27:16;;;;;;;3.23;2.10;;;15.50;99.90;;;;;;4993662;28;20234;-69
2022/10/26 01:29:57;;;;;;;3.97;1.80;;;15.50;99.90;;;;;;4993184;28;20577;-69
2022/10/26 01:32:39;;;;;;;3.07;1.97;;;15.60;99.90;;;;;;4993307;28;20167;-69
2022/10/26 01:35:09;;;;;;;4.90;2.17;;;15.60;99.90;;;;;;4993148;28;20179;-69
2022/10/26 01:37:47;;;;;;;4.07;1.90;;;15.60;99.90;;;;;;4993233;28;20168;-68
2022/10/26 01:40:31;;;;;;;2.53;1.90;;;15.60;99.90;;;;;;4993496;28;20263;-69
2022/10/26 01:43:01;;;;;;;5.50;2.33;;;15.60;99.90;;;;;;4993167;28;20167;-69
2022/10/26 01:45:28;;;;;;;3.63;1.77;;;15.60;99.90;;;;;;4993213;28;20199;-69
2022/10/26 01:47:55;;;;;;;2.33;1.80;;;15.70;99.90;;;;;;4993114;28;20662;-69
2022/10/26 01:50:22;;;;;;;4.90;2.10;;;15.80;99.90;;;;;;4993120;28;20605;-69
2022/10/26 01:52:51;;;;;;;5.10;1.90;;;15.80;99.90;;;;;;4993201;28;20175;-69
2022/10/26 01:55:38;;;;;;;5.10;2.10;;;15.80;99.90;;;;;;4996652;28;20172;-69
2022/10/26 01:58:14;;;;;;;5.87;1.90;;;15.90;99.90;;;;;;4996613;28;20167;-69
2022/10/26 02:00:51;;;;;;;2.10;1.50;;;15.90;99.90;;;;;;4995365;28;20573;-69
2022/10/26 02:03:30;;;;;;;3.70;1.80;;;16.00;99.90;;;;;;4996339;28;20186;-68
2022/10/26 02:06:26;;;;;;;3.67;2.00;;;16.00;99.90;;;;;;4996234;28;20631;-68
2022/10/26 02:09:03;;;;;;;3.17;1.60;;;16.00;99.90;;;;;;4996683;28;20258;-69
2022/10/26 02:11:40;;;;;;;3.53;1.40;;;16.00;99.90;;;;;;4996335;28;20211;-69
2022/10/26 02:14:35;;;;;;;3.73;1.70;;;16.00;99.90;;;;;;4996493;28;20241;-69
2022/10/26 02:17:14;;;;;;;3.57;1.50;;;16.10;99.90;;;;;;4996181;28;20759;-69
2022/10/26 02:19:55;;;;;;;3.50;1.77;;;16.20;99.90;;;;;;4996083;28;20175;-69
2022/10/26 02:22:25;;;;;;;2.00;1.60;;;16.20;99.90;;;;;;4996176;28;20202;-69
2022/10/26 02:24:52;;;;;;;3.67;1.50;;;16.30;99.90;;;;;;4996180;28;20607;-68
2022/10/26 02:27:31;;;;;;;3.90;1.80;;;16.30;99.90;;;;;;4996318;28;20191;-69
2022/10/26 02:29:59;;;;;;;3.93;1.60;;;16.40;99.90;;;;;;4995901;28;20234;-69
2022/10/26 02:32:28;;;;;;;4.67;1.70;;;16.40;99.90;;;;;;4994834;28;20172;-69
2022/10/26 02:34:56;;;;;;;2.27;1.73;;;16.40;99.90;;;;;;4995859;28;20187;-69
2022/10/26 02:37:23;;;;;;;3.27;1.30;;;16.40;99.90;;;;;;4996213;28;20226;-69
2022/10/26 02:39:51;;;;;;;3.83;1.60;;;16.40;99.90;;;;;;4995958;28;20183;-69
2022/10/26 02:42:18;;;;;;;2.97;1.40;;;16.50;99.90;;;;;;4995823;28;20202;-70
2022/10/26 02:44:49;;;;;;;3.33;1.57;;;16.50;99.90;;;;;;4996056;28;20246;-69
2022/10/26 02:47:15;;;;;;;3.23;1.60;;;16.50;99.90;;;;;;4995556;28;20693;-69
2022/10/26 02:49:42;;;;;;;2.40;1.42;;;16.50;99.90;;;;;;4995777;28;20261;-68
2022/10/26 02:52:16;;;;;;;2.87;1.33;;;16.50;99.90;;;;;;4995540;28;20289;-69
2022/10/26 02:55:00;;;;;;;1.80;1.50;;;16.60;99.90;;;;;;4995341;28;20639;-71
2022/10/26 02:57:33;;;;;;;3.77;1.33;;;16.60;99.90;;;;;;4995564;28;20171;-69
2022/10/26 02:59:59;;;;;;;2.53;1.33;;;16.70;99.90;;;;;;4995807;28;20270;-69
2022/10/26 03:02:26;;;;;;;5.53;1.60;;;16.70;99.90;;;;;;4995052;28;20175;-69
2022/10/26 03:04:53;;;;;;;2.22;1.33;;;16.80;99.90;;;;;;4995109;28;20233;-69
2022/10/26 03:07:25;;;;;;;2.37;1.67;;;16.90;99.90;;;;;;4995412;28;20175;-69
2022/10/26 03:09:50;;;;;;;2.97;1.70;;;16.90;99.90;;;;;;4995307;28;20199;-70
2022/10/26 03:12:16;;;;;;;4.40;1.75;;;16.90;99.90;;;;;;4995172;28;20182;-70
2022/10/26 03:14:42;;;;;;;5.13;1.50;;;16.90;99.90;;;;;;4995124;28;20647;-69
2022/10/26 03:17:07;;;;;;;2.10;1.40;;;16.90;99.90;;;;;;4994683;28;20665;-69
2022/10/26 03:19:33;;;;;;;1.80;1.25;;;16.90;99.90;;;;;;4994580;28;20658;-69
2022/10/26 03:21:58;;;;;;;4.38;1.73;;;16.90;99.90;;;;;;4994765;28;20656;-69
2022/10/26 03:24:24;;;;;;;4.30;1.60;;;17.00;99.90;;;;;;4994956;28;20175;-69
2022/10/26 03:26:49;;;;;;;2.38;1.40;;;17.00;99.90;;;;;;4995148;28;20180;-69
2022/10/26 03:29:15;;;;;;;3.72;1.40;;;17.10;99.90;;;;;;4994626;28;20686;-70
2022/10/26 03:31:41;;;;;;;1.88;1.25;;;17.00;99.90;;;;;;4994035;28;20596;-70
2022/10/26 03:34:06;;;;;;;2.07;1.33;;;17.00;99.90;;;;;;4994726;28;20217;-70
2022/10/26 03:36:32;;;;;;;3.43;1.50;;;17.00;99.90;;;;;;4994606;28;20298;-69
2022/10/26 03:38:58;;;;;;;2.97;1.40;;;17.00;99.90;;;;;;4994782;28;20266;-70
2022/10/26 03:41:24;;;;;;;2.20;1.40;;;17.00;99.90;;;;;;4994225;28;20251;-69
2022/10/26 03:43:49;;;;;;;2.92;1.50;;;17.00;99.90;;;;;;4994467;28;20176;-70
2022/10/26 03:46:15;;;;;;;3.20;1.85;;;17.00;99.90;;;;;;4994180;28;20209;-69
2022/10/26 03:48:40;;;;;;;3.78;1.70;;;17.00;99.90;;;;;;4994221;28;20186;-69
2022/10/26 03:51:06;;;;;;;2.40;1.35;;;17.00;99.90;;;;;;4993993;28;20743;-69
2022/10/26 03:53:32;;;;;;;5.13;1.80;;;17.00;99.90;;;;;;4994433;28;20250;-69
2022/10/26 03:55:57;;;;;;;4.85;1.85;;;16.90;99.90;;;;;;4994243;28;20209;-68
2022/10/26 03:58:23;;;;;;;2.42;1.48;;;17.00;99.90;;;;;;4994061;28;20254;-69
2022/10/26 04:00:49;;;;;;;4.27;1.77;;;17.00;99.90;;;;;;4993556;28;20187;-69
2022/10/26 04:03:14;;;;;;;6.95;2.00;;;17.10;99.90;;;;;;4993664;28;20182;-69
2022/10/26 04:05:40;;;;;;;5.73;1.93;;;17.00;99.90;;;;;;4993499;28;20175;-70
2022/10/26 04:08:06;;;;;;;4.75;2.08;;;17.00;99.90;;;;;;4994219;28;20255;-69
2022/10/26 04:10:31;;;;;;;6.97;2.03;;;17.00;99.90;;;;;;4993573;28;20225;-69
2022/10/26 04:13:00;;;;;;;5.68;2.30;;;17.00;99.90;;;;;;4993971;28;20631;-71
2022/10/26 04:15:27;;;;;;;7.15;2.53;;;16.90;99.90;;;;;;4993715;28;20528;-68
2022/10/26 04:18:00;;;;;;;5.53;2.57;;;16.90;99.90;;;;;;4993356;28;20167;-69
2022/10/26 04:20:28;;;;;;;2.80;2.20;;;16.80;99.90;;;;;;4992789;28;20537;-68
2022/10/26 04:23:01;;;;;;;5.57;2.20;;;16.70;99.90;;;;;;4993636;28;20191;-69
2022/10/26 04:25:27;;;;;;;5.30;2.60;;;16.70;99.90;;;;;;4993385;28;20209;-68
2022/10/26 04:27:53;;;;;;;3.90;2.10;;;16.70;99.90;;;;;;4993443;28;20262;-69
2022/10/26 04:30:19;;;;;;;4.73;2.00;;;16.60;99.90;;;;;;4992889;28;20556;-69
2022/10/26 04:32:44;;;;;;;3.73;1.80;;;16.70;99.90;;;;;;4993194;28;20179;-69
2022/10/26 04:35:10;;;;;;;3.57;1.60;;;16.70;99.90;;;;;;4993505;28;20187;-69
2022/10/26 04:37:35;;;;;;;5.67;1.83;;;16.70;99.90;;;;;;4991928;28;20570;-69
2022/10/26 04:40:01;;;;;;;3.17;1.77;;;16.70;99.90;;;;;;4993317;28;20203;-69
2022/10/26 04:42:26;;;;;;;2.87;1.83;;;16.70;99.90;;;;;;4993175;28;20624;-69
2022/10/26 04:44:52;;;;;;;4.03;2.10;;;16.70;99.90;;;;;;4993039;28;20631;-70
2022/10/26 04:47:17;;;;;;;2.97;2.20;;;16.70;99.90;;;;;;4993227;28;20238;-70
2022/10/26 04:49:43;;;;;;;4.37;2.10;;;16.80;99.90;;;;;;4993603;28;20175;-70
2022/10/26 04:52:09;;;;;;;6.80;2.42;;;16.70;99.90;;;;;;4993048;28;20209;-69
2022/10/26 04:54:34;;;;;;;3.20;2.30;;;16.80;99.90;;;;;;4992989;28;20631;-69
2022/10/26 04:57:00;;;;;;;6.00;2.20;;;16.80;99.90;;;;;;4992963;28;20203;-69
2022/10/26 04:59:25;;;;;;;3.43;2.40;;;16.80;99.90;;;;;;4992303;28;20627;-69
2022/10/26 05:01:51;;;;;;;6.43;2.43;;;16.80;99.90;;;;;;4992392;28;20283;-69
2022/10/26 05:04:16;;;;;;;2.37;2.17;;;16.90;99.90;;;;;;4991222;28;20225;-68
2022/10/26 05:06:42;;;;;;;4.17;2.30;;;16.80;99.90;;;;;;4993120;28;20533;-70
2022/10/26 05:09:08;;;;;;;5.73;2.33;;;16.80;99.90;;;;;;4993214;28;20187;-70
2022/10/26 05:11:33;;;;;;;4.17;2.30;;;16.90;99.90;;;;;;4992906;28;20215;-70
2022/10/26 05:13:59;;;;;;;5.33;2.20;;;16.80;99.90;;;;;;4992866;28;20171;-70
2022/10/26 05:16:24;;;;;;;3.43;1.87;;;16.80;99.90;;;;;;4992306;28;20176;-70
2022/10/26 05:18:50;;;;;;;3.10;2.30;;;16.80;99.90;;;;;;4992974;28;20206;-69
2022/10/26 05:21:19;;;;;;;5.97;2.50;;;16.80;99.90;;;;;;4992440;28;20658;-70
2022/10/26 05:23:54;;;;;;;3.37;1.93;;;16.80;99.90;;;;;;4992253;28;20207;-70
2022/10/26 05:26:23;;;;;;;3.40;2.33;;;16.80;99.90;;;;;;4992544;28;20194;-70
2022/10/26 05:28:48;;;;;;;5.43;2.50;;;16.70;99.90;;;;;;4993415;28;20203;-70
2022/10/26 05:31:14;;;;;;;2.72;2.38;;;16.70;99.90;;;;;;4995929;28;20211;-69
2022/10/26 05:33:40;;;;;;;4.00;2.38;;;16.70;99.90;;;;;;4996284;28;20187;-70
2022/10/26 05:36:06;;;;;;;4.07;2.00;;;16.60;99.90;;;;;;4996820;28;20237;-69
2022/10/26 05:38:32;;;;;;;3.37;2.10;;;16.60;99.90;;;;;;4996306;28;20261;-69
2022/10/26 05:40:58;;;;;;;3.90;2.40;;;16.60;99.90;;;;;;4995966;28;20221;-68
2022/10/26 05:43:24;;;;;;;3.23;2.20;;;16.50;99.90;;;;;;4995714;28;20215;-70
2022/10/26 05:45:50;;;;;;;6.37;2.77;;;16.50;99.90;;;;;;4996567;28;20666;-70
2022/10/26 05:48:16;;;;;;;4.37;2.57;;;16.40;99.90;;;;;;4995931;28;20168;-70
2022/10/26 05:50:42;;;;;;;4.50;2.40;;;16.40;99.90;;;;;;4995982;28;20229;-70
2022/10/26 05:53:08;;;;;;;5.43;2.67;;;16.40;99.90;;;;;;4995002;28;20623;-70
2022/10/26 05:55:34;;;;;;;3.90;2.77;;;16.30;99.90;;;;;;4996400;28;20226;-69
2022/10/26 05:58:00;;;;;;;5.23;2.60;;;16.40;99.90;;;;;;4994315;28;20278;-70
2022/10/26 06:00:27;;;;;;;5.27;2.93;;;16.40;99.90;;;;;;4996198;28;20222;-70
2022/10/26 06:03:14;;;;;;;2.87;2.40;;;16.40;99.90;;;;;;4995751;28;20167;-70
2022/10/26 06:05:55;;;;;;;4.80;2.90;;;16.40;99.90;;;;;;4995086;28;20166;-71
2022/10/26 06:08:23;;;;;;;5.97;3.00;;;16.40;99.90;;;;;;4994847;28;20266;-71
2022/10/26 06:10:49;;;;;;;4.13;2.30;;;16.40;99.90;;;;;;4994741;28;20219;-69
2022/10/26 06:13:15;;;;;;;6.43;2.70;;;16.40;99.90;;;;;;4982102;28;20246;-70
2022/10/26 06:16:13;;;;;;;6.03;3.27;;;16.40;99.90;;;;;;4981855;28;20179;-71
2022/10/26 06:19:00;;;;;;;7.27;2.90;;;16.40;99.90;;;;;;4983043;28;20210;-70
2022/10/26 06:21:51;;;;;;;4.50;2.87;;;16.40;99.90;;;;;;4974950;28;20172;-70
2022/10/26 06:24:27;;;;;;;3.73;2.50;;;16.40;99.90;;;;;;4982945;28;20172;-71
2022/10/26 06:27:22;;;;;;;7.17;3.30;;;16.40;99.90;;;;;;4995039;28;20206;-69
2022/10/26 06:29:57;;;;;;;6.40;2.90;;;16.30;99.90;;;;;;4994789;28;20231;-70
2022/10/26 06:32:26;;;;;;;10.37;3.30;;;16.40;99.90;;;;;;4987613;28;20189;-70
2022/10/26 06:35:00;;;;;;;9.63;3.03;;;16.40;99.90;;;;;;4994337;28;20234;-70
2022/10/26 06:37:28;;;;;;;6.73;3.03;;;16.40;99.90;;;;;;5008889;28;20193;-71
2022/10/26 06:39:55;;;;;;;6.20;3.03;;;16.40;99.90;;;;;;5011211;28;20240;-71
2022/10/26 06:42:21;;;;;;;4.43;3.07;;;16.50;99.90;;;;;;4999753;28;20178;-71
2022/10/26 06:44:47;;;;;;;8.68;3.20;;;16.50;99.90;;;;;;5002119;28;20251;-70
2022/10/26 06:47:25;;;;;;;6.47;3.20;;;16.50;99.90;;;;;;4995172;28;20249;-71
2022/10/26 06:50:03;;;;;;;5.40;2.70;;;16.60;99.90;;;;;;4986825;28;20659;-71
2022/10/26 06:52:41;;;;;;;5.35;2.90;;;16.70;99.90;;;;;;4985825;28;20183;-70
2022/10/26 06:55:13;;;;;;;6.67;2.80;;;16.80;99.90;;;;;;4995591;28;20202;-71
2022/10/26 06:57:41;;;;;;;4.57;2.85;;;17.10;99.90;;;;;;4986598;28;20187;-70
2022/10/26 07:00:18;;;;;;;6.80;2.88;;;17.60;99.90;;;;;;4984101;28;20178;-71
2022/10/26 07:02:45;;;;;;;6.15;3.20;;;18.00;99.90;;;;;;5002047;28;20189;-70
2022/10/26 07:05:11;;;;;;;5.78;2.38;;;18.40;99.90;;;;;;4981781;28;20542;-70
2022/10/26 07:07:42;;;;;;;5.63;2.92;;;18.70;99.90;;;;;;4994854;28;20684;-71
2022/10/26 07:10:09;;;;;;;6.50;3.30;;;19.20;99.90;;;;;;4979440;28;20213;-71
2022/10/26 07:12:35;;;;;;;4.30;2.50;;;19.80;99.90;;;;;;4988237;28;20189;-71
2022/10/26 07:15:01;;;;;;;5.15;2.50;;;20.40;99.90;;;;;;4996408;28;20179;-70
2022/10/26 07:17:27;;;;;;;5.22;2.30;;;20.90;99.90;;;;;;4992498;28;20238;-70
2022/10/26 07:19:54;;;;;;;3.08;2.47;;;21.40;99.90;;;;;;5003225;28;20178;-70
2022/10/26 07:22:19;;;;;;;7.25;2.80;;;21.40;99.90;;;;;;4988377;28;20194;-70
2022/10/26 07:24:49;;;;;;;4.65;2.30;;;21.70;99.90;;;;;;4973992;28;21830;-69
2022/10/26 07:27:15;;;;;;;4.60;2.53;;;21.60;99.90;;;;;;4982897;28;20467;-70
2022/10/26 07:29:41;;;;;;;5.25;2.70;;;22.20;99.90;;;;;;4986915;28;20287;-71
2022/10/26 07:32:07;;;;;;;3.50;2.42;;;22.80;99.90;;;;;;4982985;28;20219;-70
2022/10/26 07:34:32;;;;;;;3.92;2.75;;;23.00;99.90;;;;;;4994126;28;20270;-72
2022/10/26 07:36:59;;;;;;;4.13;2.80;;;23.10;99.90;;;;;;4986486;28;20719;-68
2022/10/26 07:39:25;;;;;;;5.30;2.70;;;23.50;99.90;;;;;;4987023;28;20172;-71
2022/10/26 07:41:50;;;;;;;6.63;2.53;;;24.00;99.90;;;;;;4991262;28;20175;-70
2022/10/26 07:44:16;;;;;;;6.00;2.35;;;24.30;99.90;;;;;;4990357;28;20179;-72
2022/10/26 07:46:42;;;;;;;7.38;2.40;;;24.00;99.90;;;;;;4991598;28;20202;-70
2022/10/26 07:49:08;;;;;;;5.47;2.30;;;24.40;99.90;;;;;;4986653;28;20264;-71
2022/10/26 07:51:33;;;;;;;12.70;7.90;;;24.90;99.10;;;;;;4989459;28;20210;-72
2022/10/26 07:53:59;;;;;;;5.75;3.58;;;25.00;97.80;;;;;;4984233;28;20186;-71
2022/10/26 07:56:25;;;;;;;4.05;2.47;;;25.70;1.00;;;;;;4992428;28;20278;-70
2022/10/26 07:58:53;;;;;;;7.15;2.70;;;26.20;99.90;;;;;;4990839;28;20728;-70
2022/10/26 08:01:19;;;;;;;4.13;2.63;;;26.70;54.70;;;;;;4987787;28;20191;-73
2022/10/26 08:03:44;;;;;;;6.68;2.97;;;26.70;62.40;;;;;;4982561;28;20272;-70
2022/10/26 08:06:10;;;;;;;5.10;2.83;;;26.50;29.30;;;;;;4987749;28;20755;-72
2022/10/26 08:08:36;;;;;;;6.03;2.58;;;26.60;99.40;;;;;;4984791;28;20206;-71
2022/10/26 08:11:02;;;;;;;5.30;2.90;;;26.60;13.00;;;;;;4999695;28;20207;-70
2022/10/26 08:13:28;;;;;;;7.78;2.90;;;26.30;99.90;;;;;;4990527;28;20198;-73
2022/10/26 08:16:02;;;;;;;3.88;2.60;;;25.80;99.90;;;;;;5000211;28;20182;-72
2022/10/26 08:18:28;;;;;;;6.90;2.50;;;26.00;1.00;;;;;;5008597;28;20725;-72
2022/10/26 08:20:54;;;;;;;4.90;2.50;;;25.90;99.90;;;;;;5002320;28;20277;-71
2022/10/26 08:23:20;;;;;;;5.70;2.60;;;26.40;99.90;;;;;;4997444;28;20195;-71
2022/10/26 08:25:45;;;;;;;7.25;2.28;;;27.30;1.00;;;;;;4994006;28;20238;-72
2022/10/26 08:28:11;;;;;;;9.20;2.20;;;28.00;1.00;;;;;;5006776;28;20570;-71
2022/10/26 08:30:37;;;;;;;3.55;2.05;;;27.80;1.00;;;;;;4997945;28;20332;-71
2022/10/26 08:33:05;;;;;;;6.60;1.90;;;28.10;1.00;;;;;;4995847;28;20651;-71
2022/10/26 08:35:31;;;;;;;4.38;2.17;;;27.80;1.00;;;;;;5006860;28;20247;-71
2022/10/26 08:38:02;;;;;;;8.07;2.42;;;27.60;1.00;;;;;;4994918;28;20207;-70
2022/10/26 08:40:32;;;;;;;6.93;2.40;;;27.90;1.00;;;;;;5003926;28;20182;-71
2022/10/26 08:43:04;;;;;;;5.40;2.45;;;28.40;1.00;;;;;;4981902;28;20199;-71
2022/10/26 08:45:40;;;;;;;5.47;2.17;;;27.70;1.00;;;;;;5001363;28;20174;-71
2022/10/26 08:48:14;;;;;;;6.35;2.45;;;28.00;1.00;;;;;;4996256;28;20535;-71
2022/10/26 08:50:48;;;;;;;9.57;2.70;;;28.30;1.00;;;;;;5001357;28;20206;-72
2022/10/26 08:53:24;;;;;;;5.07;2.05;;;28.70;1.00;;;;;;4992750;28;20258;-72
2022/10/26 08:55:58;;;;;;;6.18;2.70;;;29.00;1.00;;;;;;5007046;28;20190;-71
2022/10/26 08:58:30;;;;;;;2.45;2.00;;;28.80;1.00;;;;;;4998751;28;20197;-71
2022/10/26 09:00:58;;;;;;;3.05;2.10;;;28.40;1.00;;;;;;4988675;28;20179;-72
2022/10/26 09:03:23;;;;;;;2.35;2.10;;;28.70;1.00;;;;;;4992293;28;20756;-72
2022/10/26 09:06:07;;;;;;;5.82;2.40;;;29.40;99.90;;;;;;5000974;28;20294;-71
2022/10/26 09:09:02;;;;;;;5.13;2.22;;;29.30;99.90;;;;;;5009844;28;20587;-72
2022/10/26 09:11:38;;;;;;;2.72;2.05;;;28.50;1.00;;;;;;4999537;28;20218;-70
2022/10/26 09:14:10;;;;;;;5.03;2.22;;;27.80;1.00;;;;;;4983882;28;20204;-71
2022/10/26 09:16:35;;;;;;;3.45;2.17;;;27.10;1.00;;;;;;4999257;28;20234;-71
2022/10/26 09:19:38;;;;;;;5.25;1.90;;;27.60;1.00;;;;;;4998979;28;20200;-70
2022/10/26 09:22:10;;;;;;;5.10;2.00;;;27.20;1.00;;;;;;4973139;28;20202;-71
2022/10/26 09:24:43;;;;;;;3.38;2.10;;;26.90;1.00;;;;;;5006202;28;20206;-71
2022/10/26 09:27:20;;;;;;;3.03;2.22;;;25.70;99.90;;;;;;5008183;28;20205;-71
2022/10/26 09:29:47;;;;;;;6.50;2.20;;;26.60;1.00;;;;;;4998264;28;20751;-71
2022/10/26 09:32:20;;;;;;;4.63;2.63;;;26.60;99.90;;;;;;5009501;28;20254;-71
2022/10/26 09:35:01;;;;;;;5.63;2.00;;;27.30;99.90;;;;;;4996906;28;20269;-71
2022/10/26 09:37:56;;;;;;;3.10;2.00;;;26.90;99.90;;;;;;4998357;28;20185;-71
2022/10/26 09:40:33;;;;;;;2.90;2.10;;;27.70;1.00;;;;;;4966435;28;20789;-72
2022/10/26 09:43:25;;;;;;;3.80;1.77;;;27.60;1.00;;;;;;4981219;28;20195;-71
2022/10/26 09:45:51;;;;;;;4.65;2.03;;;28.30;1.00;;;;;;4985473;28;20191;-71
2022/10/26 09:48:40;;;;;;;3.15;1.90;;;27.90;1.00;;;;;;4960334;28;20203;-70
2022/10/26 09:51:06;;;;;;;7.30;2.17;;;27.10;1.00;;;;;;4943599;28;20585;-72
2022/10/26 09:53:32;;;;;;;3.80;1.90;;;27.40;1.00;;;;;;4943268;28;20191;-74
2022/10/26 09:56:04;;;;;;;5.97;1.80;;;26.40;99.90;;;;;;4961794;28;20186;-73
2022/10/26 09:58:42;;;;;;;8.30;2.63;;;25.70;1.00;;;;;;4963530;28;20187;-73
2022/10/26 10:01:40;;;;;;;5.35;1.92;;;26.10;99.80;;;;;;4972806;28;20725;-74
2022/10/26 10:04:24;;;;;;;2.22;1.58;;;26.60;1.00;;;;;;4959529;28;20196;-76
2022/10/26 10:07:02;;;;;;;9.02;1.80;;;26.80;99.90;;;;;;4972683;28;20731;-75
2022/10/26 10:09:27;;;;;;;4.25;1.90;;;27.40;1.00;;;;;;4980729;28;20198;-74
2022/10/26 10:11:59;;;;;;;2.80;1.80;;;27.80;1.00;;;;;;4979366;28;20219;-75
2022/10/26 10:14:26;;;;;;;4.85;2.10;;;27.60;1.00;;;;;;4968413;28;20183;-74
2022/10/26 10:17:01;;;;;;;2.70;1.95;;;28.20;1.00;;;;;;4983520;28;20187;-75
2022/10/26 10:19:32;;;;;;;8.43;2.17;;;28.60;1.00;;;;;;4987291;28;20175;-74
2022/10/26 10:22:00;;;;;;;5.60;1.88;;;28.20;1.00;;;;;;5010601;28;20179;-75
2022/10/26 10:24:33;;;;;;;6.32;1.95;;;27.90;1.00;;;;;;4981080;28;20183;-75
2022/10/26 10:27:14;;;;;;;4.18;2.13;;;27.20;1.00;;;;;;4998734;28;20214;-73
2022/10/26 10:29:43;;;;;;;3.47;1.80;;;26.40;1.00;;;;;;4990804;28;20224;-75
2022/10/26 10:32:21;;;;;;;6.03;1.95;;;25.50;1.00;;;;;;5008948;28;20175;-75
2022/10/26 10:34:48;;;;;;;4.53;1.88;;;25.10;99.90;;;;;;5003273;28;20261;-75
2022/10/26 10:37:19;;;;;;;2.35;1.50;;;25.20;99.90;;;;;;5006798;28;20210;-75
2022/10/26 10:39:46;;;;;;;2.60;1.63;;;24.60;99.90;;;;;;4984170;28;20542;-73
2022/10/26 10:42:17;;;;;;;4.10;1.98;;;24.90;1.00;;;;;;4995150;28;20651;-75
2022/10/26 10:44:45;;;;;;;4.53;1.80;;;24.80;99.90;;;;;;5003273;28;20706;-75
2022/10/26 10:47:21;;;;;;;4.47;1.92;;;24.70;99.90;;;;;;4999840;28;20273;-76
2022/10/26 10:50:03;;;;;;;3.72;1.52;;;25.00;1.00;;;;;;4995628;28;20230;-76
2022/10/26 10:52:31;;;;;;;5.25;1.80;;;24.90;37.20;;;;;;5005067;28;20179;-75
2022/10/26 10:55:12;;;;;;;5.95;1.90;;;24.60;1.00;;;;;;5005250;28;20189;-74
2022/10/26 10:57:43;;;;;;;1.80;1.70;;;24.90;1.00;;;;;;4989754;28;20183;-75
2022/10/26 11:00:11;;;;;;;3.25;1.90;;;25.00;99.90;;;;;;4998314;28;20249;-75
2022/10/26 11:02:58;;;;;;;4.10;1.75;;;24.70;99.90;;;;;;5012590;28;20706;-74
2022/10/26 11:05:35;;;;;;;2.92;1.90;;;24.50;1.00;;;;;;4997728;28;20183;-73
2022/10/26 11:08:04;;;;;;;4.43;2.03;;;24.30;1.00;;;;;;4982294;28;20162;-75
2022/10/26 11:10:36;;;;;;;3.42;1.95;;;24.20;1.00;;;;;;5004454;28;20209;-73
2022/10/26 11:13:15;;;;;;;5.00;2.00;;;24.20;99.90;;;;;;5001610;28;20178;-75
2022/10/26 11:15:44;;;;;;;3.58;1.95;;;24.30;99.90;;;;;;4994082;28;20245;-75
2022/10/26 11:18:25;;;;;;;6.47;2.05;;;23.70;1.00;;;;;;5007820;28;20179;-75
2022/10/26 11:21:00;;;;;;;2.55;1.83;;;23.50;1.00;;;;;;4992320;28;20163;-75
2022/10/26 11:23:36;;;;;;;3.35;2.38;;;23.70;1.00;;;;;;4992871;28;20182;-74
2022/10/26 11:26:05;;;;;;;3.47;1.90;;;23.70;1.00;;;;;;4994015;28;20209;-74
2022/10/26 11:28:40;;;;;;;5.07;2.63;;;23.90;1.00;;;;;;4993295;28;20230;-73
2022/10/26 11:31:12;;;;;;;6.75;2.38;;;23.90;1.00;;;;;;4991929;28;20224;-73
2022/10/26 11:33:43;;;;;;;7.10;2.38;;;24.10;1.00;;;;;;4991262;28;20179;-74
2022/10/26 11:36:13;;;;;;;3.33;1.98;;;24.30;1.00;;;;;;5005136;28;20678;-74
2022/10/26 11:38:53;;;;;;;7.93;3.00;;;24.30;1.00;;;;;;5004595;28;20241;-74
2022/10/26 11:41:41;;;;;;;3.30;2.00;;;24.20;1.00;;;;;;5001208;28;20178;-74
2022/10/26 11:44:40;;;;;;;3.97;2.17;;;23.90;1.00;;;;;;5004717;28;20170;-74
2022/10/26 11:47:34;;;;;;;5.38;2.20;;;24.00;1.00;;;;;;4994540;28;20179;-73
2022/10/26 11:50:07;;;;;;;4.72;1.70;;;23.60;1.00;;;;;;4991319;28;20175;-73
2022/10/26 11:53:08;;;;;;;4.18;1.63;;;23.30;1.00;;;;;;5000021;28;20718;-73
2022/10/26 11:55:34;;;;;;;4.45;2.47;;;23.00;99.90;;;;;;4996999;28;20179;-74
2022/10/26 11:58:01;;;;;;;4.53;2.10;;;23.10;1.00;;;;;;5001054;28;20179;-73
2022/10/26 12:00:30;;;;;;;5.57;2.00;;;23.20;95.00;;;;;;5006169;28;20179;-73
2022/10/26 12:03:20;;;;;;;3.63;1.60;;;23.30;99.90;;;;;;4995733;28;20213;-73
2022/10/26 12:05:50;;;;;;;6.30;2.00;;;23.50;99.90;;;;;;4998599;28;20179;-73
2022/10/26 12:08:36;;;;;;;4.20;1.95;;;22.80;1.00;;;;;;4988186;28;20191;-74
2022/10/26 12:11:31;;;;;;;5.25;1.80;;;22.50;99.90;;;;;;4995125;28;20210;-74
2022/10/26 12:14:03;;;;;;;5.60;2.20;;;22.20;99.90;;;;;;4998409;28;20171;-74
2022/10/26 12:16:51;;;;;;;3.70;1.70;;;22.10;99.90;;;;;;4996943;28;20180;-74
2022/10/26 12:19:36;;;;;;;5.47;1.80;;;22.00;99.90;;;;;;4999111;28;20233;-73
2022/10/26 12:22:02;;;;;;;4.30;2.35;;;21.90;1.00;;;;;;5003120;28;20197;-74
2022/10/26 12:24:34;;;;;;;5.10;2.15;;;21.80;1.00;;;;;;5002897;28;20166;-73
2022/10/26 12:27:05;;;;;;;5.78;2.28;;;22.00;1.00;;;;;;4994874;28;20171;-74
2022/10/26 12:30:26;;;;;;;3.85;2.33;;;22.00;1.00;;;;;;4993746;28;20223;-72
2022/10/26 12:33:00;;;;;;;6.32;2.38;;;21.80;1.00;;;;;;4981466;28;20286;-72
2022/10/26 12:35:32;;;;;;;3.78;2.03;;;21.70;1.00;;;;;;4993973;28;20194;-72
2022/10/26 12:37:58;;;;;;;3.05;2.20;;;21.80;1.00;;;;;;4988547;28;20186;-76
2022/10/26 12:40:41;;;;;;;6.68;2.55;;;21.80;1.00;;;;;;4990702;28;20217;-72
2022/10/26 12:43:13;;;;;;;5.88;2.22;;;21.90;1.00;;;;;;5001332;28;20162;-73
2022/10/26 12:46:05;;;;;;;5.53;2.00;;;21.90;1.00;;;;;;4993874;28;20275;-73
2022/10/26 12:48:49;;;;;;;3.55;1.80;;;21.90;1.00;;;;;;5002002;28;20210;-73
2022/10/26 12:51:21;;;;;;;3.65;1.80;;;21.90;1.00;;;;;;4997511;28;20206;-73
2022/10/26 12:53:52;;;;;;;6.80;2.00;;;21.70;1.00;;;;;;4996512;28;20199;-72
2022/10/26 12:56:25;;;;;;;7.82;2.42;;;21.70;1.00;;;;;;4996411;28;20219;-74
2022/10/26 12:58:59;;;;;;;3.00;1.85;;;21.70;1.00;;;;;;4997742;28;20176;-73
2022/10/26 13:01:59;;;;;;;9.10;2.10;;;21.70;1.00;;;;;;4987816;28;20282;-74
2022/10/26 13:04:37;;;;;;;3.13;1.77;;;21.70;1.00;;;;;;4998203;28;20271;-73
2022/10/26 13:07:16;;;;;;;5.40;1.83;;;21.60;1.00;;;;;;4989154;28;20189;-73
2022/10/26 13:09:55;;;;;;;5.60;2.08;;;21.70;1.00;;;;;;4988012;28;20532;-74
2022/10/26 13:12:21;;;;;;;7.03;1.92;;;21.40;1.00;;;;;;5004769;28;20174;-72
2022/10/26 13:15:22;;;;;;;8.13;2.22;;;21.50;1.00;;;;;;4986890;28;20187;-74